Latest Weather Observations for Dennes Point

IDT60801

Issued at 9:35 pm EST Friday 29 August 2014 (issued every 30 minutes, with the page automatically refreshed every 10 minutes)

About weather observations | Map of weather stations | Latest weather observations for TAS | Other Formats
Station Details ID: 094255 Name: DENNES POINT Lat: -43.06 Lon: 147.36 Height: 5.67 m
Data from the previous 72 hours. | See also: Recent months at Dennes Point
Date/Time
EST
Temp
°C
App
Temp
°C
Dew
Point
Rel
Hum
%
Delta-T
°C
Wind Press
QNH
hPa
Press
MSL
hPa
Rain
since 9 am
mm
Dir
 
Spd
km/h
Gust
km/h
Spd
kts
Gust
kts
29/09:30pm 9.2 7.3 7.6 90 0.8 SSW 7 9 4 5 1029.8 1029.8 0.0
29/09:00pm 11.1 10.4 8.7 85 1.2 ENE 2 4 1 2 1029.7 1029.7 0.0
29/08:30pm 11.2 9.6 8.6 84 1.3 NE 7 9 4 5 1029.7 1029.7 0.0
29/08:00pm 11.4 9.8 8.6 83 1.4 ENE 7 9 4 5 1029.8 1029.8 0.0
29/07:30pm 11.7 10.2 9.3 85 1.2 NE 7 7 4 4 1029.6 1029.6 0.0
29/07:00pm 11.9 10.6 10.0 88 1.0 ENE 7 9 4 5 1029.5 1029.5 0.0
29/06:30pm 12.2 10.9 9.8 85 1.2 E 7 11 4 6 1029.5 1029.5 0.0
29/06:00pm 12.4 10.6 9.4 82 1.5 ESE 9 11 5 6 1029.4 1029.4 0.0
29/05:30pm 12.6 10.7 8.9 78 1.9 SE 9 13 5 7 1029.1 1029.1 0.0
29/05:00pm 13.2 11.0 9.5 78 1.9 SE 11 15 6 8 1028.9 1028.9 0.0
29/04:30pm 13.4 10.8 9.3 76 2.1 ESE 13 19 7 10 1028.6 1028.6 0.0
29/04:00pm 13.9 11.3 9.3 74 2.3 ESE 13 17 7 9 1028.6 1028.6 0.0
29/03:30pm 14.8 12.4 8.5 66 3.2 ESE 11 13 6 7 1028.3 1028.3 0.0
29/03:00pm 15.0 12.6 8.7 66 3.2 ESE 11 13 6 7 1028.5 1028.5 0.0
29/02:30pm 15.1 13.1 8.6 65 3.3 ESE 9 13 5 7 1028.4 1028.4 0.0
29/02:00pm 14.9 13.2 8.4 65 3.3 E 7 9 4 5 1028.5 1028.5 0.0
29/01:30pm 14.2 12.8 8.8 70 2.7 E 6 7 3 4 1028.7 1028.7 0.0
29/01:00pm 14.9 14.1 9.7 71 2.7 E 4 6 2 3 1029.0 1029.0 0.0
29/12:30pm 14.1 13.1 8.9 71 2.6 N 4 4 2 2 1029.2 1029.2 0.0
29/12:00pm 13.6 12.2 8.7 72 2.4 N 6 6 3 3 1029.5 1029.5 0.0
29/11:30am 12.9 11.3 8.6 75 2.1 N 7 11 4 6 1029.7 1029.7 0.0
29/11:00am 12.6 10.7 9.1 79 1.7 NNE 9 11 5 6 1029.8 1029.8 0.0
29/10:30am 11.8 9.3 8.1 78 1.8 NNE 11 15 6 8 1029.8 1029.8 0.0
29/10:00am 12.1 10.5 8.9 81 1.6 E 7 9 4 5 1029.8 1029.8 0.0
29/09:30am 11.4 11.0 8.4 82 1.5 CALM 0 2 0 1 1029.9 1029.9 0.0
29/09:00am 10.4 9.8 8.8 90 0.8 SW 2 4 1 2 1030.0 1030.0 0.0
29/08:30am 9.5 8.0 8.4 93 0.5 SW 6 7 3 4 1029.7 1029.7 0.0
29/08:00am 9.1 7.9 8.0 93 0.5 SSW 4 7 2 4 1029.5 1029.5 0.0
29/07:30am 8.4 6.6 7.8 96 0.3 SW 7 9 4 5 1029.2 1029.2 0.0
29/07:00am 7.3 5.4 6.7 96 0.3 SW 6 7 3 4 1028.9 1028.9 0.0
29/06:30am 7.5 5.1 6.9 96 0.3 SW 9 11 5 6 1028.5 1028.5 0.0
29/06:00am 7.2 4.7 6.6 96 0.3 SW 9 11 5 6 1028.3 1028.3 0.0
29/05:30am 8.4 6.6 8.0 97 0.2 SSW 7 9 4 5 1028.1 1028.1 0.0
29/05:00am 7.7 5.4 7.3 97 0.2 SW 9 11 5 6 1028.1 1028.1 0.0
29/04:30am 7.5 5.1 6.9 96 0.3 SSW 9 11 5 6 1027.8 1027.8 0.0
29/04:00am 9.4 7.9 8.6 95 0.4 WSW 6 7 3 4 1027.9 1027.9 0.0
29/03:30am 9.2 8.8 8.4 95 0.4 CALM 0 0 0 0 1027.7 1027.7 0.0
29/03:00am 9.0 8.6 8.1 94 0.4 CALM 0 4 0 2 1027.7 1027.7 0.0
29/02:30am 8.8 8.0 8.0 95 0.4 SSW 2 6 1 3 1027.9 1027.9 0.0
29/02:00am 8.0 6.0 7.1 94 0.4 SSW 7 7 4 4 1027.9 1027.9 0.0
29/01:30am 8.8 7.0 7.3 90 0.7 SW 6 7 3 4 1028.0 1028.0 0.0
29/01:00am 8.4 6.4 7.2 92 0.6 SSW 7 9 4 5 1027.9 1027.9 0.0
29/12:30am 8.7 6.7 7.2 90 0.7 S 7 11 4 6 1027.9 1027.9 0.0
29/12:00am 9.2 7.3 7.6 90 0.8 S 7 11 4 6 1027.8 1027.8 0.0
 
Date/Time
EST
Temp
°C
App
Temp
°C
Dew
Point
Rel
Hum
%
Delta-T
°C
Wind Press
QNH
hPa
Press
MSL
hPa
Rain
since 9 am
mm
Dir
 
Spd
km/h
Gust
km/h
Spd
kts
Gust
kts
28/11:30pm 9.0 6.7 7.6 91 0.7 SSW 9 13 5 7 1027.7 1027.7 0.0
28/11:00pm 9.6 7.1 8.0 90 0.8 S 11 15 6 8 1027.7 1027.7 0.0
28/10:30pm 9.7 6.8 8.3 91 0.7 S 13 15 7 8 1027.9 1027.9 0.0
28/10:00pm 9.6 7.5 8.4 92 0.6 SSW 9 13 5 7 1027.9 1027.9 0.0
28/09:30pm 9.4 7.3 8.3 93 0.5 SSW 9 11 5 6 1027.8 1027.8 0.0
28/09:00pm 9.9 7.5 8.7 92 0.6 SW 11 15 6 8 1027.9 1027.9 0.0
28/08:30pm 10.1 8.5 8.2 88 0.9 SSW 6 7 3 4 1027.9 1027.9 0.0
28/08:00pm 10.5 9.3 8.1 85 1.2 S 4 6 2 3 1027.8 1027.8 0.0
28/07:30pm 10.8 10.0 8.0 83 1.4 S 2 6 1 3 1027.7 1027.7 0.0
28/07:00pm 11.0 10.6 8.4 84 1.3 CALM 0 0 0 0 1027.7 1027.7 0.0
28/06:30pm 11.4 11.1 8.6 83 1.4 CALM 0 0 0 0 1027.8 1027.8 0.0
28/06:00pm 11.6 10.9 8.5 81 1.5 S 2 4 1 2 1027.4 1027.4 0.0
28/05:30pm 11.9 10.7 8.0 77 1.9 SSE 4 6 2 3 1027.2 1027.2 0.0
28/05:00pm 12.6 10.5 8.1 74 2.2 ESE 9 13 5 7 1027.1 1027.1 0.0
28/04:30pm 13.4 11.6 9.6 78 1.9 ESE 9 15 5 8 1026.9 1026.9 0.0
28/04:00pm 13.6 11.1 8.2 70 2.7 ESE 11 13 6 7 1026.8 1026.8 0.0
28/03:30pm 13.9 11.1 8.5 70 2.7 ESE 13 15 7 8 1026.8 1026.8 0.0
28/03:00pm 13.9 11.9 10.1 78 2.0 ESE 11 13 6 7 1027.0 1027.0 0.0
28/02:30pm 13.3 11.2 9.9 80 1.7 E 11 13 6 7 1027.1 1027.1 0.0
28/02:00pm 14.2 12.7 9.0 71 2.6 E 7 11 4 6 1027.1 1027.1 0.0
28/01:30pm 13.4 11.8 8.7 73 2.4 E 7 9 4 5 1027.2 1027.2 0.0
28/01:00pm 13.6 12.7 9.3 75 2.2 NE 4 6 2 3 1027.6 1027.6 0.0
28/12:30pm 13.3 12.6 9.9 80 1.7 NE 4 6 2 3 1028.0 1028.0 0.0
28/12:00pm 11.9 10.6 9.1 83 1.4 NNE 6 7 3 4 1028.3 1028.3 0.0
28/11:30am 11.9 10.4 9.1 83 1.4 N 7 11 4 6 1028.8 1028.8 0.0
28/11:00am 11.5 11.3 9.2 86 1.1 CALM 0 4 0 2 1029.0 1029.0 0.0
28/10:30am 11.3 10.4 9.2 87 1.0 NE 4 6 2 3 1029.1 1029.1 0.0
28/10:00am 11.6 10.3 9.3 86 1.1 NE 6 7 3 4 1029.4 1029.4 0.0
28/09:30am 10.7 9.2 9.1 90 0.8 NNE 7 9 4 5 1029.4 1029.4 0.0
28/09:00am 11.0 9.6 8.9 87 1.0 ENE 6 7 3 4 1029.3 1029.3 0.2
28/08:30am 11.4 10.2 9.7 89 0.9 E 6 7 3 4 1029.3 - 0.2
28/08:00am 10.6 10.1 9.4 92 0.6 SSW 2 4 1 2 1029.2 1029.2 0.2
28/07:30am 10.6 10.5 9.5 93 0.6 CALM 0 4 0 2 1029.1 - 0.2
28/07:00am 9.0 7.8 7.9 93 0.5 S 4 6 2 3 1029.0 1029.0 0.2
28/06:30am 9.0 8.1 7.9 93 0.5 SW 2 6 1 3 1028.7 - 0.2
28/06:00am 9.7 9.0 8.5 92 0.6 ESE 2 4 1 2 1028.5 1028.5 0.2
28/05:30am 10.1 9.4 8.5 90 0.8 SSW 2 4 1 2 1028.4 - 0.2
28/05:00am 9.2 7.7 8.3 94 0.4 SSW 6 7 3 4 1028.4 1028.4 0.2
28/04:30am 9.4 7.9 8.5 94 0.4 SW 6 7 3 4 1028.6 - 0.2
28/04:00am 9.9 8.5 9.0 94 0.4 SSW 6 7 3 4 1028.4 1028.4 0.2
28/03:30am 10.0 8.4 8.8 92 0.6 WSW 7 9 4 5 1028.5 - 0.0
28/03:00am 10.4 9.0 9.0 91 0.7 SSW 6 9 3 5 1028.3 1028.3 0.0
28/02:30am 10.4 9.0 8.8 90 0.8 SW 6 9 3 5 1028.3 - 0.0
28/02:00am 11.2 10.4 9.6 90 0.8 N 4 7 2 4 1028.4 1028.4 0.0
28/01:30am 11.0 10.4 9.1 88 0.9 SSW 2 6 1 3 1028.8 - 0.0
28/01:00am 10.7 10.5 9.1 90 0.8 CALM 0 2 0 1 1028.9 1028.9 0.0
28/12:30am 10.9 9.5 8.8 87 1.0 SSW 6 7 3 4 1029.0 - 0.0
28/12:00am 11.1 9.7 8.8 86 1.1 SW 6 7 3 4 1029.1 1029.1 0.0
 
Date/Time
EST
Temp
°C
App
Temp
°C
Dew
Point
Rel
Hum
%
Delta-T
°C
Wind Press
QNH
hPa
Press
MSL
hPa
Rain
since 9 am
mm
Dir
 
Spd
km/h
Gust
km/h
Spd
kts
Gust
kts
27/11:30pm 11.7 10.8 9.3 85 1.2 SW 4 6 2 3 1028.9 - 0.0
27/11:00pm 11.5 10.2 9.2 86 1.1 SW 6 6 3 3 1029.0 1029.0 0.0
27/10:30pm 11.2 9.8 8.9 86 1.1 SW 6 7 3 4 1029.0 - 0.0
27/10:00pm 11.6 9.7 9.0 84 1.3 SW 9 13 5 7 1029.0 1029.0 0.0
27/09:30pm 11.6 9.3 9.0 84 1.3 SW 11 13 6 7 1028.9 - 0.0
27/09:00pm 11.7 9.5 9.3 85 1.2 SW 11 13 6 7 1028.7 1028.7 0.0
27/08:30pm 11.8 8.9 9.7 87 1.1 WSW 15 17 8 9 1028.4 - 0.0
27/08:00pm 12.0 9.6 10.2 89 0.9 SW 13 15 7 8 1028.2 1028.2 0.0
27/07:30pm 11.8 9.7 9.7 87 1.1 SW 11 15 6 8 1028.1 - 0.0
27/07:00pm 11.2 9.4 8.1 81 1.5 SSW 7 7 4 4 1027.9 1027.9 0.0
27/06:30pm 12.4 11.8 8.9 79 1.8 SSW 2 6 1 3 1027.5 - 0.0
27/06:00pm 13.1 12.4 8.6 74 2.2 SSE 2 4 1 2 1027.1 1027.1 0.0
27/05:30pm 13.3 12.2 8.4 72 2.4 S 4 7 2 4 1026.8 - 0.0
27/05:00pm 15.2 14.5 8.4 64 3.4 E 2 7 1 4 1026.5 1026.5 0.0
27/04:30pm 16.2 15.0 9.4 64 3.5 S 6 9 3 5 1026.4 - 0.0
27/04:00pm 16.8 14.8 7.2 53 4.8 ESE 7 9 4 5 1026.2 1026.2 0.0
27/03:30pm 16.0 13.6 8.5 61 3.8 ESE 11 13 6 7 1026.1 - 0.0
27/03:00pm 17.9 16.8 7.0 49 5.4 NE 2 4 1 2 1026.1 1026.1 0.0
27/02:30pm 17.7 16.7 7.4 51 5.2 NE 2 4 1 2 1026.1 - 0.0
27/02:00pm 17.2 15.9 7.8 54 4.7 NE 4 4 2 2 1026.2 1026.2 0.0
27/01:30pm 16.6 14.9 7.5 55 4.6 E 6 7 3 4 1026.3 - 0.0
27/01:00pm 16.4 15.2 7.9 57 4.3 NNE 4 6 2 3 1026.5 1026.5 0.0
27/12:30pm 15.7 14.7 8.7 63 3.6 NE 4 7 2 4 1026.6 - 0.0
27/12:00pm 15.1 13.9 7.9 62 3.6 ENE 4 6 2 3 1027.0 1027.0 0.0
27/11:30am 14.6 13.0 8.1 65 3.2 ENE 6 7 3 4 1027.4 - 0.0
27/11:00am 13.8 12.1 7.6 66 3.0 ENE 6 7 3 4 1027.6 1027.6 0.0
27/10:30am 12.5 10.9 8.0 74 2.2 E 6 7 3 4 1027.7 - 0.0
27/10:00am 11.9 10.3 8.2 78 1.8 E 6 9 3 5 1027.7 1027.7 0.0
27/09:30am 10.4 9.2 8.0 85 1.2 NE 4 6 2 3 1028.2 - 0.0
27/09:00am 8.8 7.2 8.0 95 0.4 SW 6 7 3 4 1028.2 1028.2 0.4
27/08:30am 8.6 7.0 8.2 97 0.2 SW 6 7 3 4 1028.0 - 0.4
27/08:00am 7.9 6.0 7.6 98 0.1 SW 7 9 4 5 1028.1 1028.1 0.4
27/07:30am 6.9 4.4 6.6 98 0.1 SW 9 9 5 5 1027.9 - 0.4
27/07:00am 5.4 2.9 5.0 97 0.2 SW 7 9 4 5 1027.5 1027.5 0.4
27/06:30am 6.6 4.1 6.5 99 0.0 SSW 9 11 5 6 1027.3 - 0.4
27/06:00am 6.8 4.3 6.7 99 0.0 SSW 9 11 5 6 1027.1 1027.1 0.4
27/05:30am 6.8 4.7 6.7 99 0.0 SSW 7 9 4 5 1027.1 - 0.4
27/05:00am 6.6 4.1 6.5 99 0.0 SSW 9 11 5 6 1027.1 1027.1 0.2
27/04:30am 6.2 4.9 6.1 99 0.0 S 2 6 1 3 1027.0 - 0.2
27/04:00am 5.9 3.6 5.8 99 0.0 SW 7 11 4 6 1027.1 1027.1 0.2
27/03:30am 6.8 4.8 6.4 97 0.2 SW 6 9 3 5 1027.1 - 0.2
27/03:00am 7.2 6.5 7.1 99 0.0 CALM 0 0 0 0 1027.3 1027.3 0.2
27/02:30am 9.0 8.0 8.9 99 0.0 W 4 6 2 3 1027.5 - 0.2
27/02:00am 8.7 8.0 8.6 99 0.0 ENE 2 6 1 3 1027.7 1027.7 0.2
27/01:30am 7.5 6.9 7.4 99 0.0 CALM 0 2 0 1 1027.8 - 0.2
27/01:00am 9.3 9.1 9.2 99 0.0 CALM 0 2 0 1 1027.9 1027.9 0.2
27/12:30am 8.7 8.0 8.6 99 0.0 SW 2 4 1 2 1028.1 - 0.2
27/12:00am 7.4 5.4 7.3 99 0.0 SW 7 9 4 5 1028.3 1028.3 0.2
 
Date/Time
EST
Temp
°C
App
Temp
°C
Dew
Point
Rel
Hum
%
Delta-T
°C
Wind Press
QNH
hPa
Press
MSL
hPa
Rain
since 9 am
mm
Dir
 
Spd
km/h
Gust
km/h
Spd
kts
Gust
kts
26/11:30pm 8.8 6.8 8.7 99 0.0 SSW 9 11 5 6 1028.5 - 0.2
26/11:00pm 8.7 7.1 8.6 99 0.0 SSW 7 9 4 5 1028.4 1028.4 0.2
26/10:30pm 9.1 7.1 8.8 98 0.1 SSW 9 11 5 6 1028.3 - 0.0
26/10:00pm 9.2 6.9 8.9 98 0.1 SSW 11 13 6 7 1028.4 1028.4 0.0

Other Formats:

Comma delimited format used in spreadsheet applications
http://www.bom.gov.au/fwo/IDT60801/IDT60801.94988.axf

JavaScript Object Notation format (JSON) in row-major order
http://www.bom.gov.au/fwo/IDT60801/IDT60801.94988.json